sensor_id;sensor_type;location;lat;lon;timestamp;temperature;humidity
11140;DHT22;5624;49.388;11.350;2022-07-17T00:00:41;15.20;50.40
11140;DHT22;5624;49.388;11.350;2022-07-17T00:03:11;15.10;50.30
11140;DHT22;5624;49.388;11.350;2022-07-17T00:05:37;15.10;50.70
11140;DHT22;5624;49.388;11.350;2022-07-17T00:08:05;15.00;50.90
11140;DHT22;5624;49.388;11.350;2022-07-17T00:10:32;14.90;51.20
11140;DHT22;5624;49.388;11.350;2022-07-17T00:12:57;14.80;51.20
11140;DHT22;5624;49.388;11.350;2022-07-17T00:15:23;14.70;51.50
11140;DHT22;5624;49.388;11.350;2022-07-17T00:17:49;14.80;51.70
11140;DHT22;5624;49.388;11.350;2022-07-17T00:20:14;14.80;51.50
11140;DHT22;5624;49.388;11.350;2022-07-17T00:22:40;14.90;51.00
11140;DHT22;5624;49.388;11.350;2022-07-17T00:25:09;14.90;51.00
11140;DHT22;5624;49.388;11.350;2022-07-17T00:27:36;15.00;50.70
11140;DHT22;5624;49.388;11.350;2022-07-17T00:30:03;14.80;50.70
11140;DHT22;5624;49.388;11.350;2022-07-17T00:32:29;14.80;51.20
11140;DHT22;5624;49.388;11.350;2022-07-17T00:34:55;14.70;51.30
11140;DHT22;5624;49.388;11.350;2022-07-17T00:37:21;14.70;51.40
11140;DHT22;5624;49.388;11.350;2022-07-17T00:39:47;14.70;51.10
11140;DHT22;5624;49.388;11.350;2022-07-17T00:42:13;14.60;51.30
11140;DHT22;5624;49.388;11.350;2022-07-17T00:44:40;14.60;51.70
11140;DHT22;5624;49.388;11.350;2022-07-17T00:47:17;14.50;51.80
11140;DHT22;5624;49.388;11.350;2022-07-17T00:49:44;14.50;51.40
11140;DHT22;5624;49.388;11.350;2022-07-17T00:52:11;14.50;51.40
11140;DHT22;5624;49.388;11.350;2022-07-17T00:54:38;14.40;51.50
11140;DHT22;5624;49.388;11.350;2022-07-17T00:57:10;14.40;51.50
11140;DHT22;5624;49.388;11.350;2022-07-17T00:59:37;14.40;51.30
11140;DHT22;5624;49.388;11.350;2022-07-17T01:02:07;14.40;51.60
11140;DHT22;5624;49.388;11.350;2022-07-17T01:04:34;14.40;51.80
11140;DHT22;5624;49.388;11.350;2022-07-17T01:07:00;14.40;51.80
11140;DHT22;5624;49.388;11.350;2022-07-17T01:09:27;14.30;51.70
11140;DHT22;5624;49.388;11.350;2022-07-17T01:11:54;14.30;51.80
11140;DHT22;5624;49.388;11.350;2022-07-17T01:14:19;14.30;51.90
11140;DHT22;5624;49.388;11.350;2022-07-17T01:16:46;14.20;52.20
11140;DHT22;5624;49.388;11.350;2022-07-17T01:19:11;14.20;52.20
11140;DHT22;5624;49.388;11.350;2022-07-17T01:21:43;14.20;52.50
11140;DHT22;5624;49.388;11.350;2022-07-17T01:24:09;14.10;52.50
11140;DHT22;5624;49.388;11.350;2022-07-17T01:26:35;14.10;52.70
11140;DHT22;5624;49.388;11.350;2022-07-17T01:29:01;14.00;53.00
11140;DHT22;5624;49.388;11.350;2022-07-17T01:31:26;14.00;52.80
11140;DHT22;5624;49.388;11.350;2022-07-17T01:33:52;14.10;52.60
11140;DHT22;5624;49.388;11.350;2022-07-17T01:36:22;14.10;52.90
11140;DHT22;5624;49.388;11.350;2022-07-17T01:38:48;14.10;52.90
11140;DHT22;5624;49.388;11.350;2022-07-17T01:41:14;14.00;53.60
11140;DHT22;5624;49.388;11.350;2022-07-17T01:43:40;13.90;53.10
11140;DHT22;5624;49.388;11.350;2022-07-17T01:46:06;13.90;53.30
11140;DHT22;5624;49.388;11.350;2022-07-17T01:48:31;13.90;53.40
11140;DHT22;5624;49.388;11.350;2022-07-17T01:50:57;13.90;53.10
11140;DHT22;5624;49.388;11.350;2022-07-17T01:53:23;13.90;53.40
11140;DHT22;5624;49.388;11.350;2022-07-17T01:55:49;13.90;53.10
11140;DHT22;5624;49.388;11.350;2022-07-17T01:58:14;13.90;53.10
11140;DHT22;5624;49.388;11.350;2022-07-17T02:00:40;13.80;53.40
11140;DHT22;5624;49.388;11.350;2022-07-17T02:03:06;13.80;53.90
11140;DHT22;5624;49.388;11.350;2022-07-17T02:05:31;13.80;53.80
11140;DHT22;5624;49.388;11.350;2022-07-17T02:07:57;13.70;53.80
11140;DHT22;5624;49.388;11.350;2022-07-17T02:10:23;13.60;54.30
11140;DHT22;5624;49.388;11.350;2022-07-17T02:12:49;13.50;54.70
11140;DHT22;5624;49.388;11.350;2022-07-17T02:15:15;13.50;54.40
11140;DHT22;5624;49.388;11.350;2022-07-17T02:17:41;13.40;54.90
11140;DHT22;5624;49.388;11.350;2022-07-17T02:20:08;13.50;54.40
11140;DHT22;5624;49.388;11.350;2022-07-17T02:22:35;13.40;54.90
11140;DHT22;5624;49.388;11.350;2022-07-17T02:25:02;13.40;55.00
11140;DHT22;5624;49.388;11.350;2022-07-17T02:27:27;13.30;55.30
11140;DHT22;5624;49.388;11.350;2022-07-17T02:29:53;13.30;55.10
11140;DHT22;5624;49.388;11.350;2022-07-17T02:32:18;13.30;55.20
11140;DHT22;5624;49.388;11.350;2022-07-17T02:34:44;13.30;54.90
11140;DHT22;5624;49.388;11.350;2022-07-17T02:37:10;13.30;54.40
11140;DHT22;5624;49.388;11.350;2022-07-17T02:39:35;13.40;54.30
11140;DHT22;5624;49.388;11.350;2022-07-17T02:42:01;13.30;54.20
11140;DHT22;5624;49.388;11.350;2022-07-17T02:44:26;13.30;54.30
11140;DHT22;5624;49.388;11.350;2022-07-17T02:46:52;13.30;54.30
11140;DHT22;5624;49.388;11.350;2022-07-17T02:49:18;13.20;54.50
11140;DHT22;5624;49.388;11.350;2022-07-17T02:51:43;13.10;55.10
11140;DHT22;5624;49.388;11.350;2022-07-17T02:54:09;13.20;54.80
11140;DHT22;5624;49.388;11.350;2022-07-17T02:56:34;13.10;54.90
11140;DHT22;5624;49.388;11.350;2022-07-17T02:59:00;13.10;55.10
11140;DHT22;5624;49.388;11.350;2022-07-17T03:01:26;13.00;55.40
11140;DHT22;5624;49.388;11.350;2022-07-17T03:03:51;13.00;55.40
11140;DHT22;5624;49.388;11.350;2022-07-17T03:06:17;13.00;55.60
11140;DHT22;5624;49.388;11.350;2022-07-17T03:08:43;13.00;55.10
11140;DHT22;5624;49.388;11.350;2022-07-17T03:11:08;13.00;55.30
11140;DHT22;5624;49.388;11.350;2022-07-17T03:13:34;13.00;55.50
11140;DHT22;5624;49.388;11.350;2022-07-17T03:16:00;12.90;55.30
11140;DHT22;5624;49.388;11.350;2022-07-17T03:18:25;12.90;55.60
11140;DHT22;5624;49.388;11.350;2022-07-17T03:20:51;12.80;55.80
11140;DHT22;5624;49.388;11.350;2022-07-17T03:23:17;12.80;55.90
11140;DHT22;5624;49.388;11.350;2022-07-17T03:25:42;12.80;55.70
11140;DHT22;5624;49.388;11.350;2022-07-17T03:28:08;12.70;55.90
11140;DHT22;5624;49.388;11.350;2022-07-17T03:30:34;12.70;55.70
11140;DHT22;5624;49.388;11.350;2022-07-17T03:32:59;12.80;55.50
11140;DHT22;5624;49.388;11.350;2022-07-17T03:35:25;12.90;55.10
11140;DHT22;5624;49.388;11.350;2022-07-17T03:37:51;12.80;55.30
11140;DHT22;5624;49.388;11.350;2022-07-17T03:40:16;12.80;55.60
11140;DHT22;5624;49.388;11.350;2022-07-17T03:42:42;12.70;55.90
11140;DHT22;5624;49.388;11.350;2022-07-17T03:45:08;12.70;55.90
11140;DHT22;5624;49.388;11.350;2022-07-17T03:47:34;12.60;56.30
11140;DHT22;5624;49.388;11.350;2022-07-17T03:50:00;12.60;56.40
11140;DHT22;5624;49.388;11.350;2022-07-17T03:52:25;12.50;56.60
11140;DHT22;5624;49.388;11.350;2022-07-17T03:54:51;12.50;56.90
11140;DHT22;5624;49.388;11.350;2022-07-17T03:57:17;12.50;56.70
11140;DHT22;5624;49.388;11.350;2022-07-17T03:59:42;12.50;56.70
11140;DHT22;5624;49.388;11.350;2022-07-17T04:02:08;12.50;57.40
11140;DHT22;5624;49.388;11.350;2022-07-17T04:04:34;12.50;57.70
11140;DHT22;5624;49.388;11.350;2022-07-17T04:06:59;12.60;56.70
11140;DHT22;5624;49.388;11.350;2022-07-17T04:09:25;12.60;57.30
11140;DHT22;5624;49.388;11.350;2022-07-17T04:11:51;12.60;57.40
11140;DHT22;5624;49.388;11.350;2022-07-17T04:14:16;12.50;57.80
11140;DHT22;5624;49.388;11.350;2022-07-17T04:16:42;12.60;57.50
11140;DHT22;5624;49.388;11.350;2022-07-17T04:19:08;12.70;56.80
11140;DHT22;5624;49.388;11.350;2022-07-17T04:21:33;12.80;56.30
11140;DHT22;5624;49.388;11.350;2022-07-17T04:23:59;12.90;55.80
11140;DHT22;5624;49.388;11.350;2022-07-17T04:26:25;13.10;55.70
11140;DHT22;5624;49.388;11.350;2022-07-17T04:28:50;13.10;55.60
11140;DHT22;5624;49.388;11.350;2022-07-17T04:31:16;13.20;55.60
11140;DHT22;5624;49.388;11.350;2022-07-17T04:33:42;13.30;55.10
11140;DHT22;5624;49.388;11.350;2022-07-17T04:36:07;13.40;54.60
11140;DHT22;5624;49.388;11.350;2022-07-17T04:38:33;13.60;54.10
11140;DHT22;5624;49.388;11.350;2022-07-17T04:40:59;13.90;53.80
11140;DHT22;5624;49.388;11.350;2022-07-17T04:43:24;14.80;51.10
11140;DHT22;5624;49.388;11.350;2022-07-17T04:45:51;15.60;48.70
11140;DHT22;5624;49.388;11.350;2022-07-17T04:48:16;15.90;47.90
11140;DHT22;5624;49.388;11.350;2022-07-17T04:50:42;16.30;47.30
11140;DHT22;5624;49.388;11.350;2022-07-17T04:53:08;16.30;47.00
11140;DHT22;5624;49.388;11.350;2022-07-17T04:55:33;16.30;47.10
11140;DHT22;5624;49.388;11.350;2022-07-17T04:57:59;16.30;47.00
11140;DHT22;5624;49.388;11.350;2022-07-17T05:00:25;16.50;46.80
11140;DHT22;5624;49.388;11.350;2022-07-17T05:02:50;16.50;46.20
11140;DHT22;5624;49.388;11.350;2022-07-17T05:05:16;16.30;46.80
11140;DHT22;5624;49.388;11.350;2022-07-17T05:07:42;16.30;46.30
11140;DHT22;5624;49.388;11.350;2022-07-17T05:10:08;16.20;47.00
11140;DHT22;5624;49.388;11.350;2022-07-17T05:12:34;16.50;45.90
11140;DHT22;5624;49.388;11.350;2022-07-17T05:15:00;16.60;45.40
11140;DHT22;5624;49.388;11.350;2022-07-17T05:17:26;16.30;46.50
11140;DHT22;5624;49.388;11.350;2022-07-17T05:19:51;16.40;46.70
11140;DHT22;5624;49.388;11.350;2022-07-17T05:22:17;16.60;46.20
11140;DHT22;5624;49.388;11.350;2022-07-17T05:24:43;16.80;45.70
11140;DHT22;5624;49.388;11.350;2022-07-17T05:27:08;17.10;44.70
11140;DHT22;5624;49.388;11.350;2022-07-17T05:29:34;17.40;44.20
11140;DHT22;5624;49.388;11.350;2022-07-17T05:32:00;17.60;43.60
11140;DHT22;5624;49.388;11.350;2022-07-17T05:34:25;17.60;43.50
11140;DHT22;5624;49.388;11.350;2022-07-17T05:36:51;17.40;44.40
11140;DHT22;5624;49.388;11.350;2022-07-17T05:39:17;17.30;44.30
11140;DHT22;5624;49.388;11.350;2022-07-17T05:41:42;17.30;43.90
11140;DHT22;5624;49.388;11.350;2022-07-17T05:44:08;17.30;44.90
11140;DHT22;5624;49.388;11.350;2022-07-17T05:46:34;17.30;44.90
11140;DHT22;5624;49.388;11.350;2022-07-17T05:49:00;17.50;44.60
11140;DHT22;5624;49.388;11.350;2022-07-17T05:51:25;17.50;44.90
11140;DHT22;5624;49.388;11.350;2022-07-17T05:53:51;17.80;43.60
11140;DHT22;5624;49.388;11.350;2022-07-17T05:56:17;17.90;43.50
11140;DHT22;5624;49.388;11.350;2022-07-17T05:58:43;17.90;44.30
11140;DHT22;5624;49.388;11.350;2022-07-17T06:01:09;17.80;44.00
11140;DHT22;5624;49.388;11.350;2022-07-17T06:03:35;17.90;43.10
11140;DHT22;5624;49.388;11.350;2022-07-17T06:06:00;17.90;43.20
11140;DHT22;5624;49.388;11.350;2022-07-17T06:08:26;18.20;43.10
11140;DHT22;5624;49.388;11.350;2022-07-17T06:10:52;18.40;42.30
11140;DHT22;5624;49.388;11.350;2022-07-17T06:13:18;18.70;42.20
11140;DHT22;5624;49.388;11.350;2022-07-17T06:15:43;19.10;40.90
11140;DHT22;5624;49.388;11.350;2022-07-17T06:18:09;20.20;39.00
11140;DHT22;5624;49.388;11.350;2022-07-17T06:20:35;21.60;36.00
11140;DHT22;5624;49.388;11.350;2022-07-17T06:23:00;22.70;34.20
11140;DHT22;5624;49.388;11.350;2022-07-17T06:25:26;23.60;33.20
11140;DHT22;5624;49.388;11.350;2022-07-17T06:27:52;24.60;32.00
11140;DHT22;5624;49.388;11.350;2022-07-17T06:30:18;25.30;31.10
11140;DHT22;5624;49.388;11.350;2022-07-17T06:32:43;26.50;30.50
11140;DHT22;5624;49.388;11.350;2022-07-17T06:35:10;27.40;28.20
11140;DHT22;5624;49.388;11.350;2022-07-17T06:37:36;27.70;28.00
11140;DHT22;5624;49.388;11.350;2022-07-17T06:40:03;27.70;27.60
11140;DHT22;5624;49.388;11.350;2022-07-17T06:42:29;27.60;27.00
11140;DHT22;5624;49.388;11.350;2022-07-17T06:44:55;27.20;28.20
11140;DHT22;5624;49.388;11.350;2022-07-17T06:47:20;27.80;27.60
11140;DHT22;5624;49.388;11.350;2022-07-17T06:49:46;27.40;27.90
11140;DHT22;5624;49.388;11.350;2022-07-17T06:52:12;27.70;26.10
11140;DHT22;5624;49.388;11.350;2022-07-17T06:54:37;27.30;30.20
11140;DHT22;5624;49.388;11.350;2022-07-17T06:57:03;27.40;26.90
11140;DHT22;5624;49.388;11.350;2022-07-17T06:59:29;27.60;29.30
11140;DHT22;5624;49.388;11.350;2022-07-17T07:01:55;27.50;26.90
11140;DHT22;5624;49.388;11.350;2022-07-17T07:04:21;27.20;29.60
11140;DHT22;5624;49.388;11.350;2022-07-17T07:06:46;27.70;27.60
11140;DHT22;5624;49.388;11.350;2022-07-17T07:09:12;27.90;29.90
11140;DHT22;5624;49.388;11.350;2022-07-17T07:11:38;28.20;26.70
11140;DHT22;5624;49.388;11.350;2022-07-17T07:14:05;28.20;27.60
11140;DHT22;5624;49.388;11.350;2022-07-17T07:16:31;28.20;28.20
11140;DHT22;5624;49.388;11.350;2022-07-17T07:18:57;27.80;27.70
11140;DHT22;5624;49.388;11.350;2022-07-17T07:21:23;28.10;29.00
11140;DHT22;5624;49.388;11.350;2022-07-17T07:23:51;28.70;28.80
11140;DHT22;5624;49.388;11.350;2022-07-17T07:26:16;29.00;24.90
11140;DHT22;5624;49.388;11.350;2022-07-17T07:28:42;28.70;26.50
11140;DHT22;5624;49.388;11.350;2022-07-17T07:31:09;28.60;26.40
11140;DHT22;5624;49.388;11.350;2022-07-17T07:33:37;28.80;27.00
11140;DHT22;5624;49.388;11.350;2022-07-17T07:36:03;29.50;27.30
11140;DHT22;5624;49.388;11.350;2022-07-17T07:38:28;30.20;27.00
11140;DHT22;5624;49.388;11.350;2022-07-17T07:40:54;30.50;24.90
11140;DHT22;5624;49.388;11.350;2022-07-17T07:43:20;29.90;25.60
11140;DHT22;5624;49.388;11.350;2022-07-17T07:45:46;30.00;25.80
11140;DHT22;5624;49.388;11.350;2022-07-17T07:48:12;30.20;27.20
11140;DHT22;5624;49.388;11.350;2022-07-17T07:50:37;30.30;24.50
11140;DHT22;5624;49.388;11.350;2022-07-17T07:53:03;30.10;24.60
11140;DHT22;5624;49.388;11.350;2022-07-17T07:55:29;30.20;24.90
11140;DHT22;5624;49.388;11.350;2022-07-17T07:58:05;30.20;26.90
11140;DHT22;5624;49.388;11.350;2022-07-17T08:00:31;29.90;23.90
11140;DHT22;5624;49.388;11.350;2022-07-17T08:02:57;29.70;25.90
11140;DHT22;5624;49.388;11.350;2022-07-17T08:05:23;30.30;24.30
11140;DHT22;5624;49.388;11.350;2022-07-17T08:07:49;30.50;23.60
11140;DHT22;5624;49.388;11.350;2022-07-17T08:10:14;30.50;24.80
11140;DHT22;5624;49.388;11.350;2022-07-17T08:12:40;30.70;26.20
11140;DHT22;5624;49.388;11.350;2022-07-17T08:15:06;30.70;25.90
11140;DHT22;5624;49.388;11.350;2022-07-17T08:17:32;31.20;24.20
11140;DHT22;5624;49.388;11.350;2022-07-17T08:19:58;31.10;23.50
11140;DHT22;5624;49.388;11.350;2022-07-17T08:22:23;31.60;25.20
11140;DHT22;5624;49.388;11.350;2022-07-17T08:24:49;32.10;24.60
11140;DHT22;5624;49.388;11.350;2022-07-17T08:27:15;32.20;21.70
11140;DHT22;5624;49.388;11.350;2022-07-17T08:29:41;32.00;24.10
11140;DHT22;5624;49.388;11.350;2022-07-17T08:32:07;31.50;23.50
11140;DHT22;5624;49.388;11.350;2022-07-17T08:34:33;31.60;22.80
11140;DHT22;5624;49.388;11.350;2022-07-17T08:36:59;31.70;23.10
11140;DHT22;5624;49.388;11.350;2022-07-17T08:39:24;31.40;21.50
11140;DHT22;5624;49.388;11.350;2022-07-17T08:41:50;30.30;23.40
11140;DHT22;5624;49.388;11.350;2022-07-17T08:44:16;29.30;23.80
11140;DHT22;5624;49.388;11.350;2022-07-17T08:46:43;28.50;25.80
11140;DHT22;5624;49.388;11.350;2022-07-17T08:49:10;28.80;26.00
11140;DHT22;5624;49.388;11.350;2022-07-17T08:51:37;29.20;27.10
11140;DHT22;5624;49.388;11.350;2022-07-17T08:54:03;29.60;25.60
11140;DHT22;5624;49.388;11.350;2022-07-17T08:56:29;29.80;26.20
11140;DHT22;5624;49.388;11.350;2022-07-17T08:58:55;29.70;23.40
11140;DHT22;5624;49.388;11.350;2022-07-17T09:01:22;29.40;23.90
11140;DHT22;5624;49.388;11.350;2022-07-17T09:03:59;28.90;24.30
11140;DHT22;5624;49.388;11.350;2022-07-17T09:06:26;28.20;25.10
11140;DHT22;5624;49.388;11.350;2022-07-17T09:09:05;27.60;27.10
11140;DHT22;5624;49.388;11.350;2022-07-17T09:11:48;28.10;28.20
11140;DHT22;5624;49.388;11.350;2022-07-17T09:14:16;28.50;25.00
11140;DHT22;5624;49.388;11.350;2022-07-17T09:16:56;28.90;25.50
11140;DHT22;5624;49.388;11.350;2022-07-17T09:19:29;29.40;26.20
11140;DHT22;5624;49.388;11.350;2022-07-17T09:22:19;30.20;24.90
11140;DHT22;5624;49.388;11.350;2022-07-17T09:24:52;30.60;25.20
11140;DHT22;5624;49.388;11.350;2022-07-17T09:32:21;30.50;22.60
11140;DHT22;5624;49.388;11.350;2022-07-17T09:34:51;30.80;23.60
11140;DHT22;5624;49.388;11.350;2022-07-17T09:37:17;30.90;22.20
11140;DHT22;5624;49.388;11.350;2022-07-17T09:39:44;30.70;25.00
11140;DHT22;5624;49.388;11.350;2022-07-17T09:42:22;30.70;25.70
11140;DHT22;5624;49.388;11.350;2022-07-17T09:47:28;31.10;24.30
11140;DHT22;5624;49.388;11.350;2022-07-17T09:49:56;31.50;23.80
11140;DHT22;5624;49.388;11.350;2022-07-17T09:52:28;31.60;23.00
11140;DHT22;5624;49.388;11.350;2022-07-17T09:54:59;31.40;23.60
11140;DHT22;5624;49.388;11.350;2022-07-17T09:57:27;31.00;23.10
11140;DHT22;5624;49.388;11.350;2022-07-17T09:59:55;30.20;22.60
11140;DHT22;5624;49.388;11.350;2022-07-17T10:02:21;30.10;22.90
11140;DHT22;5624;49.388;11.350;2022-07-17T10:04:48;30.20;23.40
11140;DHT22;5624;49.388;11.350;2022-07-17T10:07:14;29.80;23.50
11140;DHT22;5624;49.388;11.350;2022-07-17T10:09:40;29.80;25.20
11140;DHT22;5624;49.388;11.350;2022-07-17T10:12:07;30.30;25.20
11140;DHT22;5624;49.388;11.350;2022-07-17T10:14:34;30.70;25.80
11140;DHT22;5624;49.388;11.350;2022-07-17T10:17:11;30.80;23.70
11140;DHT22;5624;49.388;11.350;2022-07-17T10:19:53;31.00;25.00
11140;DHT22;5624;49.388;11.350;2022-07-17T10:22:20;31.20;22.00
11140;DHT22;5624;49.388;11.350;2022-07-17T10:24:54;30.30;22.30
11140;DHT22;5624;49.388;11.350;2022-07-17T10:27:28;29.60;24.70
11140;DHT22;5624;49.388;11.350;2022-07-17T10:30:03;29.90;25.90
11140;DHT22;5624;49.388;11.350;2022-07-17T10:32:30;30.50;25.80
11140;DHT22;5624;49.388;11.350;2022-07-17T10:35:00;30.40;23.80
11140;DHT22;5624;49.388;11.350;2022-07-17T10:42:54;29.60;24.90
11140;DHT22;5624;49.388;11.350;2022-07-17T10:45:27;30.10;25.00
11140;DHT22;5624;49.388;11.350;2022-07-17T10:48:33;30.20;23.60
11140;DHT22;5624;49.388;11.350;2022-07-17T10:50:55;30.30;23.20
11140;DHT22;5624;49.388;11.350;2022-07-17T10:53:25;30.40;22.30
11140;DHT22;5624;49.388;11.350;2022-07-17T10:56:03;30.30;22.00
11140;DHT22;5624;49.388;11.350;2022-07-17T10:58:38;30.50;24.20
11140;DHT22;5624;49.388;11.350;2022-07-17T11:01:10;30.60;22.20
11140;DHT22;5624;49.388;11.350;2022-07-17T11:06:30;31.00;24.50
11140;DHT22;5624;49.388;11.350;2022-07-17T11:16:38;29.70;22.70
11140;DHT22;5624;49.388;11.350;2022-07-17T11:19:09;29.70;23.00
11140;DHT22;5624;49.388;11.350;2022-07-17T11:21:45;30.10;23.20
11140;DHT22;5624;49.388;11.350;2022-07-17T11:24:11;30.50;22.60
11140;DHT22;5624;49.388;11.350;2022-07-17T11:26:37;30.60;21.30
11140;DHT22;5624;49.388;11.350;2022-07-17T11:29:03;30.90;20.70
11140;DHT22;5624;49.388;11.350;2022-07-17T11:31:29;30.50;19.50
11140;DHT22;5624;49.388;11.350;2022-07-17T11:34:03;30.50;20.60
11140;DHT22;5624;49.388;11.350;2022-07-17T11:36:34;31.00;21.30
11140;DHT22;5624;49.388;11.350;2022-07-17T11:39:05;30.50;19.80
11140;DHT22;5624;49.388;11.350;2022-07-17T11:41:45;29.80;21.70
11140;DHT22;5624;49.388;11.350;2022-07-17T11:44:14;29.80;20.80
11140;DHT22;5624;49.388;11.350;2022-07-17T11:46:42;29.00;20.10
11140;DHT22;5624;49.388;11.350;2022-07-17T11:49:08;28.70;22.40
11140;DHT22;5624;49.388;11.350;2022-07-17T11:51:42;29.10;22.60
11140;DHT22;5624;49.388;11.350;2022-07-17T11:54:14;29.00;20.40
11140;DHT22;5624;49.388;11.350;2022-07-17T11:56:42;28.80;20.70
11140;DHT22;5624;49.388;11.350;2022-07-17T11:59:09;29.00;23.70
11140;DHT22;5624;49.388;11.350;2022-07-17T12:01:41;29.50;24.50
11140;DHT22;5624;49.388;11.350;2022-07-17T12:04:09;29.70;20.30
11140;DHT22;5624;49.388;11.350;2022-07-17T12:06:36;29.70;22.80
11140;DHT22;5624;49.388;11.350;2022-07-17T12:09:02;29.80;22.40
11140;DHT22;5624;49.388;11.350;2022-07-17T12:11:28;29.20;21.00
11140;DHT22;5624;49.388;11.350;2022-07-17T12:13:54;29.10;21.40
11140;DHT22;5624;49.388;11.350;2022-07-17T12:16:30;29.30;23.20
11140;DHT22;5624;49.388;11.350;2022-07-17T12:18:56;29.20;22.90
11140;DHT22;5624;49.388;11.350;2022-07-17T12:21:22;29.30;21.10
11140;DHT22;5624;49.388;11.350;2022-07-17T12:24:06;28.60;21.00
11140;DHT22;5624;49.388;11.350;2022-07-17T12:26:32;28.50;22.00
11140;DHT22;5624;49.388;11.350;2022-07-17T12:28:59;28.60;21.50
11140;DHT22;5624;49.388;11.350;2022-07-17T12:31:26;28.10;21.60
11140;DHT22;5624;49.388;11.350;2022-07-17T12:33:53;27.70;22.80
11140;DHT22;5624;49.388;11.350;2022-07-17T12:36:20;27.50;21.40
11140;DHT22;5624;49.388;11.350;2022-07-17T12:38:46;27.30;22.30
11140;DHT22;5624;49.388;11.350;2022-07-17T12:41:12;27.60;22.80
11140;DHT22;5624;49.388;11.350;2022-07-17T12:43:38;27.60;22.60
11140;DHT22;5624;49.388;11.350;2022-07-17T12:46:03;27.40;22.70
11140;DHT22;5624;49.388;11.350;2022-07-17T12:48:29;27.40;22.90
11140;DHT22;5624;49.388;11.350;2022-07-17T12:50:55;27.30;23.20
11140;DHT22;5624;49.388;11.350;2022-07-17T12:53:20;27.50;22.90
11140;DHT22;5624;49.388;11.350;2022-07-17T12:55:46;27.80;25.00
11140;DHT22;5624;49.388;11.350;2022-07-17T12:58:12;28.10;23.50
11140;DHT22;5624;49.388;11.350;2022-07-17T13:00:38;28.20;21.90
11140;DHT22;5624;49.388;11.350;2022-07-17T13:03:04;28.30;21.60
11140;DHT22;5624;49.388;11.350;2022-07-17T13:05:30;27.90;23.00
11140;DHT22;5624;49.388;11.350;2022-07-17T13:07:56;27.90;22.30
11140;DHT22;5624;49.388;11.350;2022-07-17T13:10:22;28.00;22.10
11140;DHT22;5624;49.388;11.350;2022-07-17T13:12:48;28.10;23.00
11140;DHT22;5624;49.388;11.350;2022-07-17T13:15:14;28.10;20.80
11140;DHT22;5624;49.388;11.350;2022-07-17T13:17:40;27.70;20.80
11140;DHT22;5624;49.388;11.350;2022-07-17T13:20:06;27.50;21.20
11140;DHT22;5624;49.388;11.350;2022-07-17T13:22:32;27.30;20.60
11140;DHT22;5624;49.388;11.350;2022-07-17T13:24:58;27.10;21.50
11140;DHT22;5624;49.388;11.350;2022-07-17T13:27:24;27.30;23.60
11140;DHT22;5624;49.388;11.350;2022-07-17T13:29:49;27.50;21.20
11140;DHT22;5624;49.388;11.350;2022-07-17T13:32:15;27.60;22.10
11140;DHT22;5624;49.388;11.350;2022-07-17T13:34:41;27.80;21.20
11140;DHT22;5624;49.388;11.350;2022-07-17T13:37:07;28.00;21.90
11140;DHT22;5624;49.388;11.350;2022-07-17T13:39:36;28.00;20.40
11140;DHT22;5624;49.388;11.350;2022-07-17T13:42:02;28.20;21.60
11140;DHT22;5624;49.388;11.350;2022-07-17T13:44:28;28.10;20.30
11140;DHT22;5624;49.388;11.350;2022-07-17T13:46:54;27.90;20.10
11140;DHT22;5624;49.388;11.350;2022-07-17T13:49:20;27.80;20.30
11140;DHT22;5624;49.388;11.350;2022-07-17T13:51:47;27.90;20.50
11140;DHT22;5624;49.388;11.350;2022-07-17T13:54:12;27.60;19.50
11140;DHT22;5624;49.388;11.350;2022-07-17T13:56:39;27.60;21.20
11140;DHT22;5624;49.388;11.350;2022-07-17T13:59:05;27.60;22.10
11140;DHT22;5624;49.388;11.350;2022-07-17T14:01:31;27.70;19.50
11140;DHT22;5624;49.388;11.350;2022-07-17T14:03:57;27.80;20.20
11140;DHT22;5624;49.388;11.350;2022-07-17T14:06:23;27.80;20.40
11140;DHT22;5624;49.388;11.350;2022-07-17T14:08:49;27.70;21.40
11140;DHT22;5624;49.388;11.350;2022-07-17T14:11:15;27.60;21.10
11140;DHT22;5624;49.388;11.350;2022-07-17T14:13:40;27.50;20.90
11140;DHT22;5624;49.388;11.350;2022-07-17T14:16:07;27.40;21.10
11140;DHT22;5624;49.388;11.350;2022-07-17T14:18:32;27.50;20.80
11140;DHT22;5624;49.388;11.350;2022-07-17T14:20:58;27.30;21.60
11140;DHT22;5624;49.388;11.350;2022-07-17T14:23:24;27.30;21.00
11140;DHT22;5624;49.388;11.350;2022-07-17T14:25:50;27.20;20.50
11140;DHT22;5624;49.388;11.350;2022-07-17T14:28:16;27.30;21.00
11140;DHT22;5624;49.388;11.350;2022-07-17T14:30:42;27.20;20.50
11140;DHT22;5624;49.388;11.350;2022-07-17T14:33:08;27.20;21.50
11140;DHT22;5624;49.388;11.350;2022-07-17T14:35:33;27.40;21.00
11140;DHT22;5624;49.388;11.350;2022-07-17T14:38:00;27.40;20.90
11140;DHT22;5624;49.388;11.350;2022-07-17T14:40:26;27.30;20.40
11140;DHT22;5624;49.388;11.350;2022-07-17T14:42:52;27.20;20.90
11140;DHT22;5624;49.388;11.350;2022-07-17T14:45:18;27.20;19.70
11140;DHT22;5624;49.388;11.350;2022-07-17T14:47:44;27.10;21.40
11140;DHT22;5624;49.388;11.350;2022-07-17T14:50:10;27.10;21.00
11140;DHT22;5624;49.388;11.350;2022-07-17T14:52:37;27.00;21.50
11140;DHT22;5624;49.388;11.350;2022-07-17T14:55:03;27.00;19.80
11140;DHT22;5624;49.388;11.350;2022-07-17T14:57:29;27.10;19.60
11140;DHT22;5624;49.388;11.350;2022-07-17T14:59:55;27.00;20.00
11140;DHT22;5624;49.388;11.350;2022-07-17T15:02:21;26.90;19.30
11140;DHT22;5624;49.388;11.350;2022-07-17T15:04:47;26.90;19.30
11140;DHT22;5624;49.388;11.350;2022-07-17T15:07:13;26.80;19.50
11140;DHT22;5624;49.388;11.350;2022-07-17T15:09:39;26.80;19.50
11140;DHT22;5624;49.388;11.350;2022-07-17T15:12:05;26.70;19.20
11140;DHT22;5624;49.388;11.350;2022-07-17T15:14:31;26.70;19.20
11140;DHT22;5624;49.388;11.350;2022-07-17T15:16:56;26.70;18.70
11140;DHT22;5624;49.388;11.350;2022-07-17T15:19:22;26.70;20.00
11140;DHT22;5624;49.388;11.350;2022-07-17T15:21:48;26.60;20.50
11140;DHT22;5624;49.388;11.350;2022-07-17T15:24:16;26.60;20.80
11140;DHT22;5624;49.388;11.350;2022-07-17T15:26:42;26.60;20.30
11140;DHT22;5624;49.388;11.350;2022-07-17T15:29:08;26.60;19.60
11140;DHT22;5624;49.388;11.350;2022-07-17T15:31:34;26.40;20.00
11140;DHT22;5624;49.388;11.350;2022-07-17T15:34:00;26.50;19.70
11140;DHT22;5624;49.388;11.350;2022-07-17T15:36:26;26.40;19.10
11140;DHT22;5624;49.388;11.350;2022-07-17T15:38:57;26.30;19.40
11140;DHT22;5624;49.388;11.350;2022-07-17T15:41:26;26.30;19.70
11140;DHT22;5624;49.388;11.350;2022-07-17T15:43:52;26.30;18.70
11140;DHT22;5624;49.388;11.350;2022-07-17T15:46:18;26.30;18.80
11140;DHT22;5624;49.388;11.350;2022-07-17T15:48:45;26.30;19.60
11140;DHT22;5624;49.388;11.350;2022-07-17T15:51:11;26.20;19.40